Time;durP1;ratioP1;P1;durP2;ratioP2;P2;SDS_P1;SDS_P2;PMS_P1;PMS_P2;Temp;Humidity;BMP_temperature;BMP_pressure;BME280_temperature;BME280_humidity;BME280_pressure;Samples;Min_cycle;Max_cycle;Signal;HPM_P1;HPM_P2
2022/11/27 00:00:57;;;;;;;4.40;3.10;;;;;;;;;;1800822;78;21028;-65
2022/11/27 00:03:24;;;;;;;5.22;3.08;;;;;;;;;;1792123;80;21057;-65
2022/11/27 00:05:53;;;;;;;4.55;2.98;;;;;;;;;;1823247;78;21083;-65
2022/11/27 00:08:21;;;;;;;4.28;3.00;;;;;;;;;;1805660;78;21107;-65
2022/11/27 00:10:47;;;;;;;5.92;3.27;;;;;;;;;;1794618;78;21088;-65
2022/11/27 00:13:14;;;;;;;5.08;2.83;;;;;;;;;;1792599;80;21036;-65
2022/11/27 00:15:40;;;;;;;5.00;3.10;;;;;;;;;;1792493;80;21108;-65
2022/11/27 00:18:06;;;;;;;4.28;2.98;;;;;;;;;;1789656;80;21052;-65
2022/11/27 00:20:33;;;;;;;3.95;3.02;;;;;;;;;;1780407;80;21001;-68
2022/11/27 03:24:08;;;;;;;6.12;3.67;;;;;;;;;;1811099;78;28717;-65
2022/11/27 03:26:36;;;;;;;5.65;3.80;;;;;;;;;;1741645;81;20980;-66
2022/11/27 03:29:03;;;;;;;4.75;3.30;;;;;;;;;;1750274;81;21051;-66
2022/11/27 03:31:30;;;;;;;6.60;3.98;;;;;;;;;;1768218;81;21052;-65
2022/11/27 03:33:56;;;;;;;5.97;3.35;;;;;;;;;;1744789;81;21067;-66
2022/11/27 03:36:24;;;;;;;5.97;3.90;;;;;;;;;;1737937;82;21032;-66
2022/11/27 03:38:50;;;;;;;6.28;3.83;;;;;;;;;;1737690;82;21052;-67
2022/11/27 03:41:28;;;;;;;5.30;3.65;;;;;;;;;;1737866;82;21075;-67
2022/11/27 03:44:07;;;;;;;5.70;3.70;;;;;;;;;;1761845;80;21004;-67
2022/11/27 03:46:54;;;;;;;5.67;3.72;;;;;;;;;;1766342;81;21044;-67
2022/11/27 03:49:26;;;;;;;5.35;3.47;;;;;;;;;;1683746;85;21047;-66
2022/11/27 03:51:58;;;;;;;5.33;3.50;;;;;;;;;;1683534;85;21095;-66
2022/11/27 03:54:29;;;;;;;4.65;3.25;;;;;;;;;;1718631;81;21037;-67
2022/11/27 03:56:57;;;;;;;5.37;3.08;;;;;;;;;;1766392;81;21063;-67
2022/11/27 03:59:24;;;;;;;4.62;3.10;;;;;;;;;;1766632;81;21055;-66
2022/11/27 04:01:51;;;;;;;4.58;3.02;;;;;;;;;;1766454;81;21064;-67
2022/11/27 04:04:17;;;;;;;5.72;3.75;;;;;;;;;;1766536;81;22116;-67
2022/11/27 04:06:43;;;;;;;5.35;3.55;;;;;;;;;;1766845;81;21595;-66
2022/11/27 04:09:10;;;;;;;4.45;3.47;;;;;;;;;;1766479;81;21048;-66
2022/11/27 04:11:36;;;;;;;4.47;3.12;;;;;;;;;;1766584;81;21084;-67
2022/11/27 04:14:02;;;;;;;5.92;3.52;;;;;;;;;;1766351;81;21025;-67
2022/11/27 04:16:30;;;;;;;4.95;3.25;;;;;;;;;;1766590;81;21036;-67
2022/11/27 04:18:56;;;;;;;5.03;3.30;;;;;;;;;;1751782;81;21090;-67
2022/11/27 04:21:22;;;;;;;5.47;3.60;;;;;;;;;;1745091;81;21027;-67
2022/11/27 04:23:48;;;;;;;5.50;3.52;;;;;;;;;;1767552;81;21547;-67
2022/11/27 04:26:15;;;;;;;6.00;3.58;;;;;;;;;;1767387;81;21068;-67
2022/11/27 04:28:41;;;;;;;6.28;3.60;;;;;;;;;;1760899;80;21051;-66
2022/11/27 04:31:08;;;;;;;5.50;3.75;;;;;;;;;;1737127;82;21104;-66
2022/11/27 04:33:36;;;;;;;5.05;3.42;;;;;;;;;;1737256;82;21586;-66
2022/11/27 04:36:02;;;;;;;6.33;3.60;;;;;;;;;;1738949;82;21075;-67
2022/11/27 04:38:29;;;;;;;6.70;4.20;;;;;;;;;;1757180;81;21525;-66
2022/11/27 04:40:56;;;;;;;6.50;3.60;;;;;;;;;;1751447;80;20969;-66
2022/11/27 04:43:22;;;;;;;4.47;3.17;;;;;;;;;;1760145;80;20984;-66
2022/11/27 04:45:49;;;;;;;6.25;3.67;;;;;;;;;;1754528;81;21070;-67
2022/11/27 04:48:15;;;;;;;6.53;4.05;;;;;;;;;;1767869;80;21099;-67
2022/11/27 04:50:41;;;;;;;6.05;3.20;;;;;;;;;;1765019;80;20996;-67
2022/11/27 04:53:07;;;;;;;6.20;3.80;;;;;;;;;;1749879;80;22199;-67
2022/11/27 04:55:34;;;;;;;5.65;3.50;;;;;;;;;;1763796;81;21048;-67
2022/11/27 04:58:00;;;;;;;6.00;3.70;;;;;;;;;;1766609;80;21035;-67
2022/11/27 05:00:26;;;;;;;6.25;3.70;;;;;;;;;;1767607;81;21012;-67
2022/11/27 05:02:52;;;;;;;6.37;4.05;;;;;;;;;;1767494;81;21586;-66
2022/11/27 05:05:18;;;;;;;4.95;3.65;;;;;;;;;;1767736;80;21530;-67
2022/11/27 05:07:44;;;;;;;5.62;3.77;;;;;;;;;;1767522;80;21075;-67
2022/11/27 05:10:11;;;;;;;5.75;3.47;;;;;;;;;;1755019;81;21004;-65
2022/11/27 05:12:37;;;;;;;7.37;3.70;;;;;;;;;;1766793;81;21020;-65
2022/11/27 05:15:04;;;;;;;7.17;4.10;;;;;;;;;;1765655;81;21147;-64
2022/11/27 05:17:31;;;;;;;10.25;5.47;;;;;;;;;;1735482;83;21531;-65
2022/11/27 05:19:57;;;;;;;9.05;4.72;;;;;;;;;;1735315;83;21063;-65
2022/11/27 05:22:24;;;;;;;7.40;4.10;;;;;;;;;;1746946;81;21082;-65
2022/11/27 05:24:53;;;;;;;8.58;4.65;;;;;;;;;;1763500;81;21051;-65
2022/11/27 05:27:21;;;;;;;13.70;6.53;;;;;;;;;;1763884;81;21490;-65
2022/11/27 05:29:47;;;;;;;12.40;6.53;;;;;;;;;;1758229;81;20984;-65
2022/11/27 05:32:13;;;;;;;12.00;6.10;;;;;;;;;;1737013;82;21067;-64
2022/11/27 05:34:40;;;;;;;8.90;5.10;;;;;;;;;;1745230;81;21008;-64
2022/11/27 05:37:06;;;;;;;11.03;6.05;;;;;;;;;;1751880;81;21079;-64
2022/11/27 05:39:32;;;;;;;16.35;7.12;;;;;;;;;;1736930;82;21036;-64
2022/11/27 05:41:58;;;;;;;20.37;8.65;;;;;;;;;;1755145;81;21067;-64
2022/11/27 05:44:25;;;;;;;12.10;6.62;;;;;;;;;;1737097;81;21515;-64
2022/11/27 05:46:51;;;;;;;14.83;7.35;;;;;;;;;;1736921;82;21114;-64
2022/11/27 05:49:17;;;;;;;14.45;6.50;;;;;;;;;;1737190;82;21055;-65
2022/11/27 05:51:43;;;;;;;17.15;8.58;;;;;;;;;;1743939;81;21508;-65
2022/11/27 05:54:09;;;;;;;14.03;7.15;;;;;;;;;;1741578;81;21019;-65
2022/11/27 05:56:35;;;;;;;14.28;7.00;;;;;;;;;;1736959;82;21051;-65
2022/11/27 05:59:02;;;;;;;16.07;7.50;;;;;;;;;;1737064;82;21077;-65
2022/11/27 06:01:28;;;;;;;11.10;5.55;;;;;;;;;;1746158;81;20992;-65
2022/11/27 06:03:54;;;;;;;13.55;6.78;;;;;;;;;;1767141;80;21040;-65
2022/11/27 06:06:20;;;;;;;13.43;6.50;;;;;;;;;;1737201;82;20984;-65
2022/11/27 06:08:50;;;;;;;11.80;6.53;;;;;;;;;;1740332;81;22406;-66
2022/11/27 06:11:19;;;;;;;13.32;6.45;;;;;;;;;;1752392;81;21530;-66
2022/11/27 06:13:45;;;;;;;13.43;6.78;;;;;;;;;;1733202;83;21661;-65
2022/11/27 06:16:16;;;;;;;12.98;6.30;;;;;;;;;;1701684;83;21117;-65
2022/11/27 06:18:43;;;;;;;13.58;6.95;;;;;;;;;;1708178;83;21019;-65
2022/11/27 06:21:09;;;;;;;13.95;6.47;;;;;;;;;;1686848;84;21534;-66
2022/11/27 06:23:36;;;;;;;9.73;5.70;;;;;;;;;;1713240;83;21085;-65
2022/11/27 06:26:12;;;;;;;11.15;5.78;;;;;;;;;;1706717;83;21105;-65
2022/11/27 06:28:39;;;;;;;12.78;5.95;;;;;;;;;;1697997;83;20990;-65
2022/11/27 06:31:10;;;;;;;16.20;7.25;;;;;;;;;;1692776;83;21024;-65
2022/11/27 06:33:36;;;;;;;17.20;8.50;;;;;;;;;;1676628;85;21104;-65
2022/11/27 06:36:03;;;;;;;9.75;5.50;;;;;;;;;;1715469;83;21049;-65
2022/11/27 06:38:30;;;;;;;17.65;8.00;;;;;;;;;;1736490;82;21533;-65
2022/11/27 06:41:11;;;;;;;13.30;6.70;;;;;;;;;;1719509;83;21070;-65
2022/11/27 06:43:37;;;;;;;13.95;6.78;;;;;;;;;;1719273;83;21066;-65
2022/11/27 06:46:03;;;;;;;12.40;6.78;;;;;;;;;;1691697;83;21086;-66
2022/11/27 06:48:30;;;;;;;12.68;7.55;;;;;;;;;;1720130;83;21069;-66
2022/11/27 06:51:00;;;;;;;8.70;5.35;;;;;;;;;;1707419;83;21615;-66
2022/11/27 07:43:36;;;;;;;10.93;6.30;;;;;;;;;;1802738;77;22724;-64
2022/11/27 07:46:12;;;;;;;10.15;6.05;;;;;;;;;;1780450;80;21582;-64
2022/11/27 07:48:38;;;;;;;16.70;8.73;;;;;;;;;;1781511;80;21032;-64
2022/11/27 07:51:05;;;;;;;19.20;8.03;;;;;;;;;;1780462;80;21090;-64
2022/11/27 07:53:33;;;;;;;14.73;6.33;;;;;;;;;;1723813;81;22239;-65
2022/11/27 07:55:59;;;;;;;12.65;5.95;;;;;;;;;;1726553;81;21554;-64
2022/11/27 07:58:25;;;;;;;14.15;7.08;;;;;;;;;;1749908;81;21029;-65
2022/11/27 08:00:51;;;;;;;13.50;7.17;;;;;;;;;;1750893;81;21186;-65
2022/11/27 08:03:18;;;;;;;17.45;8.40;;;;;;;;;;1742092;81;21016;-65
2022/11/27 08:05:43;;;;;;;14.78;7.25;;;;;;;;;;1746581;81;21059;-65
2022/11/27 08:08:10;;;;;;;8.78;5.80;;;;;;;;;;1740012;81;20992;-65
2022/11/27 08:10:36;;;;;;;8.78;5.53;;;;;;;;;;1751141;81;21555;-64
2022/11/27 08:13:03;;;;;;;12.13;6.90;;;;;;;;;;1719871;82;21087;-64
2022/11/27 08:15:29;;;;;;;10.63;6.50;;;;;;;;;;1726167;83;21132;-64
2022/11/27 08:17:55;;;;;;;12.68;6.42;;;;;;;;;;1711065;83;20984;-64
2022/11/27 08:20:21;;;;;;;13.75;6.95;;;;;;;;;;1718031;83;21057;-64
2022/11/27 08:22:47;;;;;;;9.55;6.10;;;;;;;;;;1710033;83;21001;-64
2022/11/27 08:25:13;;;;;;;10.85;5.90;;;;;;;;;;1708474;83;21566;-65
2022/11/27 08:27:40;;;;;;;10.15;6.33;;;;;;;;;;1736136;81;21082;-76
2022/11/27 08:30:06;;;;;;;12.85;7.15;;;;;;;;;;1700163;83;21017;-63
2022/11/27 08:32:33;;;;;;;15.58;8.68;;;;;;;;;;1740427;81;21073;-64
2022/11/27 08:34:59;;;;;;;11.20;6.00;;;;;;;;;;1739633;81;21476;-64
2022/11/27 08:37:25;;;;;;;9.95;5.75;;;;;;;;;;1755467;81;21012;-66
2022/11/27 08:39:54;;;;;;;12.05;7.53;;;;;;;;;;1744098;81;21484;-63
2022/11/27 08:42:20;;;;;;;12.07;7.05;;;;;;;;;;1730154;81;21049;-63
2022/11/27 08:44:46;;;;;;;9.05;6.28;;;;;;;;;;1736103;81;21016;-63
2022/11/27 08:47:14;;;;;;;7.53;4.97;;;;;;;;;;1732053;82;21053;-64
2022/11/27 08:49:40;;;;;;;8.98;5.65;;;;;;;;;;1729239;81;21521;-64
2022/11/27 08:52:07;;;;;;;9.33;5.08;;;;;;;;;;1728387;81;21076;-64
2022/11/27 08:54:33;;;;;;;8.05;5.08;;;;;;;;;;1720799;82;21088;-64
2022/11/27 08:56:59;;;;;;;9.90;5.58;;;;;;;;;;1728376;82;21073;-64
2022/11/27 08:59:26;;;;;;;8.98;5.55;;;;;;;;;;1732431;81;21454;-64
2022/11/27 09:01:52;;;;;;;9.50;5.97;;;;;;;;;;1732264;82;21021;-64
2022/11/27 09:04:18;;;;;;;8.88;5.70;;;;;;;;;;1732950;82;21073;-64
2022/11/27 09:06:44;;;;;;;9.68;5.75;;;;;;;;;;1729000;82;21123;-64
2022/11/27 09:09:10;;;;;;;14.78;8.33;;;;;;;;;;1732922;81;21536;-64
2022/11/27 09:11:36;;;;;;;13.60;7.87;;;;;;;;;;1725467;82;21060;-64
2022/11/27 09:14:02;;;;;;;13.58;8.98;;;;;;;;;;1728073;82;21068;-64
2022/11/27 09:16:29;;;;;;;13.15;7.15;;;;;;;;;;1726642;82;21037;-66
2022/11/27 09:18:59;;;;;;;12.82;7.35;;;;;;;;;;1730831;81;21077;-64
2022/11/27 09:21:29;;;;;;;14.20;7.35;;;;;;;;;;1726951;82;21028;-64
2022/11/27 09:23:56;;;;;;;17.20;9.05;;;;;;;;;;1728247;82;21001;-63
2022/11/27 09:26:24;;;;;;;17.45;8.80;;;;;;;;;;1731795;82;21527;-65
2022/11/27 09:28:50;;;;;;;13.72;8.20;;;;;;;;;;1730470;82;21033;-64
2022/11/27 09:31:16;;;;;;;14.68;8.48;;;;;;;;;;1726130;82;21181;-64
2022/11/27 09:33:44;;;;;;;11.30;6.05;;;;;;;;;;1732909;82;21675;-64
2022/11/27 09:36:11;;;;;;;10.23;6.25;;;;;;;;;;1731121;81;21001;-64
2022/11/27 09:38:37;;;;;;;10.38;5.92;;;;;;;;;;1733359;81;21079;-62
2022/11/27 09:41:05;;;;;;;8.65;5.45;;;;;;;;;;1730957;81;21109;-63
2022/11/27 09:43:33;;;;;;;9.80;5.72;;;;;;;;;;1729956;81;21099;-63
2022/11/27 09:46:02;;;;;;;10.30;6.12;;;;;;;;;;1730464;82;22007;-64
2022/11/27 09:48:34;;;;;;;8.43;4.87;;;;;;;;;;1698224;83;21004;-64
2022/11/27 09:51:10;;;;;;;8.98;5.42;;;;;;;;;;1731248;82;21550;-62
2022/11/27 09:53:57;;;;;;;7.45;4.45;;;;;;;;;;1699579;84;21018;-65
2022/11/27 09:56:25;;;;;;;10.78;5.90;;;;;;;;;;1671883;85;21542;-64
2022/11/27 09:58:56;;;;;;;7.97;4.70;;;;;;;;;;1657914;85;21018;-64
2022/11/27 10:01:29;;;;;;;8.75;5.70;;;;;;;;;;1667379;85;21105;-64
2022/11/27 10:03:55;;;;;;;8.23;4.80;;;;;;;;;;1738248;82;21440;-64
2022/11/27 10:06:25;;;;;;;9.85;5.80;;;;;;;;;;1727640;82;20985;-64
2022/11/27 10:08:59;;;;;;;10.05;5.83;;;;;;;;;;1725288;81;21528;-64
2022/11/27 10:11:27;;;;;;;7.22;5.45;;;;;;;;;;1690925;83;21583;-64
2022/11/27 10:13:59;;;;;;;7.55;4.80;;;;;;;;;;1734690;82;21009;-64
2022/11/27 10:16:30;;;;;;;12.23;7.62;;;;;;;;;;1731364;82;21041;-64
2022/11/27 10:18:58;;;;;;;13.83;7.72;;;;;;;;;;1725173;82;21014;-64
2022/11/27 10:23:52;;;;;;;12.40;6.65;;;;;;;;;;1819691;77;24929;-66
2022/11/27 10:26:26;;;;;;;11.45;7.10;;;;;;;;;;1776029;80;21532;-64
2022/11/27 10:28:54;;;;;;;11.55;6.67;;;;;;;;;;1781488;80;21012;-64
2022/11/27 10:31:34;;;;;;;15.13;7.90;;;;;;;;;;1768524;80;21001;-64
2022/11/27 10:34:02;;;;;;;12.25;7.05;;;;;;;;;;1781135;80;21021;-64
2022/11/27 10:36:38;;;;;;;16.12;7.90;;;;;;;;;;1769049;80;22052;-64
2022/11/27 10:39:05;;;;;;;11.97;6.05;;;;;;;;;;1762582;80;21567;-65
2022/11/27 10:41:33;;;;;;;14.93;8.70;;;;;;;;;;1776757;80;21072;-64
2022/11/27 10:44:01;;;;;;;18.42;9.38;;;;;;;;;;1760102;80;22342;-64
2022/11/27 10:46:28;;;;;;;16.32;8.85;;;;;;;;;;1761584;80;21080;-64
2022/11/27 10:48:55;;;;;;;13.48;7.17;;;;;;;;;;1777370;80;21059;-64
2022/11/27 10:51:21;;;;;;;23.22;12.93;;;;;;;;;;1780058;80;20989;-65
2022/11/27 10:53:49;;;;;;;13.28;8.65;;;;;;;;;;1765827;78;21036;-64
2022/11/27 10:56:20;;;;;;;14.23;8.23;;;;;;;;;;1770999;80;21044;-65
2022/11/27 10:58:52;;;;;;;15.55;8.95;;;;;;;;;;1765255;80;21028;-64
2022/11/27 11:01:19;;;;;;;12.73;8.03;;;;;;;;;;1781250;80;21001;-64
2022/11/27 11:03:45;;;;;;;13.38;7.50;;;;;;;;;;1775487;80;20986;-65
2022/11/27 11:06:21;;;;;;;12.18;7.58;;;;;;;;;;1780581;80;20992;-64
2022/11/27 11:08:47;;;;;;;12.15;6.90;;;;;;;;;;1780465;80;21048;-65
2022/11/27 11:11:15;;;;;;;13.22;8.05;;;;;;;;;;1786008;79;21016;-65
2022/11/27 11:13:44;;;;;;;9.65;6.28;;;;;;;;;;1771305;80;21084;-64
2022/11/27 11:16:12;;;;;;;13.88;6.95;;;;;;;;;;1762028;80;20981;-65
2022/11/27 11:18:42;;;;;;;28.75;10.15;;;;;;;;;;1783589;80;20965;-64
2022/11/27 11:21:12;;;;;;;15.65;7.70;;;;;;;;;;1769702;80;21001;-64
2022/11/27 11:23:39;;;;;;;13.45;6.33;;;;;;;;;;1760311;81;21077;-64
2022/11/27 11:26:07;;;;;;;20.70;7.75;;;;;;;;;;1762681;81;20989;-64
2022/11/27 11:28:34;;;;;;;20.10;8.33;;;;;;;;;;1772244;80;21552;-65
2022/11/27 11:31:02;;;;;;;19.57;8.15;;;;;;;;;;1751896;80;21017;-64
2022/11/27 11:33:28;;;;;;;16.35;7.53;;;;;;;;;;1764438;81;21039;-64
2022/11/27 11:35:55;;;;;;;25.62;8.68;;;;;;;;;;1764757;80;21029;-63
2022/11/27 11:38:23;;;;;;;14.28;6.53;;;;;;;;;;1756135;81;20975;-63
2022/11/27 11:40:59;;;;;;;11.90;6.17;;;;;;;;;;1772876;79;21060;-63
2022/11/27 11:43:29;;;;;;;11.83;5.47;;;;;;;;;;1759446;81;21352;-64
2022/11/27 11:45:57;;;;;;;7.47;4.83;;;;;;;;;;1760453;81;21036;-63
2022/11/27 11:48:25;;;;;;;8.20;4.85;;;;;;;;;;1769742;80;21006;-63
2022/11/27 11:50:58;;;;;;;11.48;6.37;;;;;;;;;;1755321;81;20978;-63
2022/11/27 11:53:24;;;;;;;;;;;;;;;;;;1773165;81;21057;-64
2022/11/27 11:56:09;;;;;;;10.68;6.08;;;;;;;;;;1756023;81;20168;-64
2022/11/27 11:58:37;;;;;;;10.75;5.87;;;;;;;;;;1754486;81;21046;-64
2022/11/27 12:01:07;;;;;;;8.80;5.55;;;;;;;;;;1752917;81;20946;-64
2022/11/27 12:03:35;;;;;;;6.28;4.03;;;;;;;;;;1758566;81;21029;-63
2022/11/27 12:06:07;;;;;;;5.45;4.03;;;;;;;;;;1765326;81;21031;-65
2022/11/27 12:08:38;;;;;;;8.23;4.70;;;;;;;;;;1758249;81;21057;-65
2022/11/27 12:11:06;;;;;;;10.65;6.22;;;;;;;;;;1773225;81;21552;-65
2022/11/27 12:13:51;;;;;;;11.75;6.67;;;;;;;;;;1752211;81;20974;-65
2022/11/27 12:16:35;;;;;;;10.32;5.72;;;;;;;;;;1754686;81;21481;-65
2022/11/27 12:19:19;;;;;;;13.30;7.15;;;;;;;;;;1698703;81;60784;-65
2022/11/27 12:22:02;;;;;;;8.53;5.30;;;;;;;;;;1720285;83;21044;-66
2022/11/27 12:24:47;;;;;;;8.58;4.95;;;;;;;;;;1713700;82;21043;-64
2022/11/27 12:27:21;;;;;;;9.80;5.10;;;;;;;;;;1710828;83;20980;-64
2022/11/27 12:29:47;;;;;;;;;;;;;;;;;;1708039;83;21044;-64
2022/11/27 12:32:32;;;;;;;10.40;5.22;;;;;;;;;;1711847;83;20143;-64
2022/11/27 12:35:18;;;;;;;7.50;5.12;;;;;;;;;;1719560;83;21017;-65
2022/11/27 12:37:51;;;;;;;7.10;4.40;;;;;;;;;;1705909;82;21555;-64
2022/11/27 12:40:28;;;;;;;10.10;5.00;;;;;;;;;;1711212;82;21075;-64
2022/11/27 12:42:56;;;;;;;7.97;4.58;;;;;;;;;;1713775;83;21037;-66
2022/11/27 12:45:24;;;;;;;7.55;4.90;;;;;;;;;;1712886;83;21522;-65
2022/11/27 12:47:52;;;;;;;10.08;6.60;;;;;;;;;;1712041;83;20980;-65
2022/11/27 12:50:36;;;;;;;8.25;4.70;;;;;;;;;;1705357;83;20983;-64
2022/11/27 12:53:10;;;;;;;11.38;5.60;;;;;;;;;;1701258;83;21464;-65
2022/11/27 12:55:32;;;;;;;6.67;4.60;;;;;;;;;;1707235;83;21019;-65
2022/11/27 12:58:06;;;;;;;9.33;5.08;;;;;;;;;;1708654;83;21008;-65
2022/11/27 13:00:34;;;;;;;7.65;4.40;;;;;;;;;;1705249;83;21618;-65
2022/11/27 13:03:17;;;;;;;8.60;4.83;;;;;;;;;;1708053;83;21099;-66
2022/11/27 13:05:45;;;;;;;7.92;4.70;;;;;;;;;;1718469;82;20996;-66
2022/11/27 13:08:21;;;;;;;8.85;4.75;;;;;;;;;;1720362;83;21051;-66
2022/11/27 13:10:52;;;;;;;9.93;4.90;;;;;;;;;;1716535;82;21040;-66
2022/11/27 13:13:29;;;;;;;8.28;4.97;;;;;;;;;;1707987;83;21073;-65
2022/11/27 13:16:06;;;;;;;10.00;4.97;;;;;;;;;;1706408;83;21545;-77
2022/11/27 13:18:52;;;;;;;13.90;6.22;;;;;;;;;;1693570;83;21079;-75
2022/11/27 13:21:21;;;;;;;11.20;6.00;;;;;;;;;;1707310;82;21003;-78
2022/11/27 13:23:48;;;;;;;9.13;5.50;;;;;;;;;;1702644;81;21127;-70
2022/11/27 13:26:16;;;;;;;9.18;5.70;;;;;;;;;;1744665;82;21020;-67
2022/11/27 13:28:43;;;;;;;9.30;5.95;;;;;;;;;;1729333;82;21534;-67
2022/11/27 13:31:10;;;;;;;11.40;5.97;;;;;;;;;;1710633;82;21051;-66
2022/11/27 13:33:38;;;;;;;9.60;5.85;;;;;;;;;;1710479;83;21480;-67
2022/11/27 13:36:06;;;;;;;7.90;4.47;;;;;;;;;;1694079;85;21016;-67
2022/11/27 13:38:35;;;;;;;9.05;5.42;;;;;;;;;;1703664;82;21344;-66
2022/11/27 13:41:05;;;;;;;7.53;4.50;;;;;;;;;;1646272;83;21052;-67
2022/11/27 13:43:39;;;;;;;7.08;4.30;;;;;;;;;;1694509;83;21091;-68
2022/11/27 13:46:07;;;;;;;9.85;5.08;;;;;;;;;;1694037;85;21059;-67
2022/11/27 13:48:34;;;;;;;8.15;5.22;;;;;;;;;;1695011;83;21122;-67
2022/11/27 13:51:01;;;;;;;10.48;5.45;;;;;;;;;;1695525;83;21007;-67
2022/11/27 13:53:37;;;;;;;11.83;5.45;;;;;;;;;;1711657;83;21023;-68
2022/11/27 13:56:04;;;;;;;8.55;5.00;;;;;;;;;;1723108;83;21003;-68
2022/11/27 13:58:35;;;;;;;8.63;5.20;;;;;;;;;;1720980;83;21086;-67
2022/11/27 14:01:13;;;;;;;7.50;5.10;;;;;;;;;;1700219;83;21059;-69
2022/11/27 14:03:39;;;;;;;10.38;6.05;;;;;;;;;;1669237;83;21602;-67
2022/11/27 14:06:23;;;;;;;9.48;4.90;;;;;;;;;;1694425;85;21098;-68
2022/11/27 14:08:52;;;;;;;7.60;4.28;;;;;;;;;;1722994;83;21067;-68
2022/11/27 14:11:20;;;;;;;6.80;3.95;;;;;;;;;;1723520;83;21114;-69
2022/11/27 14:13:49;;;;;;;7.30;4.55;;;;;;;;;;1702932;83;21075;-69
2022/11/27 14:16:24;;;;;;;7.75;4.50;;;;;;;;;;1702224;83;21107;-68
2022/11/27 14:18:51;;;;;;;8.23;4.60;;;;;;;;;;1701698;82;21035;-69
2022/11/27 14:21:22;;;;;;;5.53;3.70;;;;;;;;;;1722703;83;21067;-70
2022/11/27 14:23:49;;;;;;;5.45;3.87;;;;;;;;;;1720147;83;21000;-69
2022/11/27 14:26:20;;;;;;;7.22;4.08;;;;;;;;;;1694097;85;21090;-69
2022/11/27 14:28:48;;;;;;;4.95;3.40;;;;;;;;;;1716624;83;20992;-68
2022/11/27 14:31:21;;;;;;;5.30;3.70;;;;;;;;;;1664015;85;21089;-68
2022/11/27 14:33:48;;;;;;;5.60;3.52;;;;;;;;;;1723022;83;21078;-68
2022/11/27 14:36:18;;;;;;;6.72;3.62;;;;;;;;;;1722030;83;21106;-68
2022/11/27 14:38:45;;;;;;;4.65;3.40;;;;;;;;;;1720245;82;21055;-68
2022/11/27 14:41:15;;;;;;;6.17;3.67;;;;;;;;;;1722967;83;21075;-68
2022/11/27 14:43:41;;;;;;;4.62;3.15;;;;;;;;;;1723142;83;21015;-68
2022/11/27 14:46:12;;;;;;;4.78;2.98;;;;;;;;;;1714472;83;21529;-68
2022/11/27 14:48:53;;;;;;;5.53;3.17;;;;;;;;;;1722358;83;21031;-68
2022/11/27 14:51:18;;;;;;;4.95;3.47;;;;;;;;;;1723527;81;21129;-68
2022/11/27 15:07:43;;;;;;;9.70;5.67;;;;;;;;;;1789972;79;28299;-67
2022/11/27 15:10:17;;;;;;;11.35;5.90;;;;;;;;;;1755705;81;21020;-66
2022/11/27 15:12:44;;;;;;;13.53;6.78;;;;;;;;;;1746837;82;21071;-67
2022/11/27 15:15:12;;;;;;;17.62;7.55;;;;;;;;;;1765823;81;21043;-67
2022/11/27 15:17:39;;;;;;;12.60;6.10;;;;;;;;;;1771164;80;21051;-67
2022/11/27 15:20:07;;;;;;;12.53;6.00;;;;;;;;;;1777692;81;21487;-66
2022/11/27 15:22:35;;;;;;;8.80;5.40;;;;;;;;;;1713504;83;21120;-66
2022/11/27 15:25:02;;;;;;;11.68;6.03;;;;;;;;;;1722528;82;21013;-66
2022/11/27 15:27:32;;;;;;;14.78;7.10;;;;;;;;;;1718068;83;21036;-66
2022/11/27 15:30:10;;;;;;;10.78;6.03;;;;;;;;;;1720837;83;21095;-67
2022/11/27 15:32:49;;;;;;;7.50;4.62;;;;;;;;;;1731808;82;21464;-66
2022/11/27 15:35:12;;;;;;;8.93;5.37;;;;;;;;;;1755858;82;20976;-66
2022/11/27 15:37:39;;;;;;;11.83;6.65;;;;;;;;;;1739514;82;20939;-66
2022/11/27 15:40:07;;;;;;;6.67;4.45;;;;;;;;;;1742305;82;21011;-66
2022/11/27 15:42:33;;;;;;;9.13;5.00;;;;;;;;;;1726637;82;21575;-66
2022/11/27 15:45:00;;;;;;;7.10;5.03;;;;;;;;;;1687001;85;21067;-67
2022/11/27 15:47:31;;;;;;;7.05;4.60;;;;;;;;;;1696161;83;21048;-67
2022/11/27 15:49:58;;;;;;;7.50;4.20;;;;;;;;;;1713183;83;21097;-66
2022/11/27 15:52:25;;;;;;;7.87;4.70;;;;;;;;;;1713032;83;21621;-66
2022/11/27 15:54:51;;;;;;;8.78;5.35;;;;;;;;;;1715217;83;21060;-65
2022/11/27 15:57:17;;;;;;;9.18;5.08;;;;;;;;;;1718421;83;21063;-66
2022/11/27 15:59:43;;;;;;;7.05;4.72;;;;;;;;;;1719078;83;20988;-66
2022/11/27 16:02:09;;;;;;;6.83;4.47;;;;;;;;;;1716089;83;21099;-64
2022/11/27 16:04:36;;;;;;;8.33;4.83;;;;;;;;;;1716162;83;21068;-65
2022/11/27 16:07:02;;;;;;;7.72;4.90;;;;;;;;;;1712638;83;21079;-64
2022/11/27 16:09:29;;;;;;;9.20;4.90;;;;;;;;;;1711737;83;21063;-64
2022/11/27 16:11:56;;;;;;;12.10;5.25;;;;;;;;;;1715546;83;21052;-65
2022/11/27 16:14:23;;;;;;;8.08;4.83;;;;;;;;;;1712870;83;21060;-66
2022/11/27 16:16:49;;;;;;;11.43;5.80;;;;;;;;;;1715864;83;21029;-64
2022/11/27 16:19:15;;;;;;;6.75;4.50;;;;;;;;;;1717659;83;21013;-65
2022/11/27 16:21:42;;;;;;;7.97;3.95;;;;;;;;;;1713091;83;21107;-65
2022/11/27 16:24:10;;;;;;;9.20;4.53;;;;;;;;;;1704249;83;21099;-65
2022/11/27 16:26:46;;;;;;;7.83;4.30;;;;;;;;;;1712788;83;21013;-65
2022/11/27 16:29:12;;;;;;;7.10;3.98;;;;;;;;;;1709981;83;21731;-64
2022/11/27 16:31:39;;;;;;;6.60;3.98;;;;;;;;;;1716044;83;21018;-65
2022/11/27 16:34:06;;;;;;;8.18;4.50;;;;;;;;;;1705449;83;21534;-66
2022/11/27 16:36:33;;;;;;;6.22;3.83;;;;;;;;;;1715556;83;21749;-67
2022/11/27 16:38:59;;;;;;;6.10;3.40;;;;;;;;;;1697352;83;21042;-66
2022/11/27 16:41:25;;;;;;;6.45;3.98;;;;;;;;;;1713732;83;21029;-66
2022/11/27 16:43:53;;;;;;;7.42;4.62;;;;;;;;;;1710444;83;21056;-66
2022/11/27 16:46:22;;;;;;;5.97;3.67;;;;;;;;;;1719567;83;21060;-66
2022/11/27 16:48:49;;;;;;;6.40;4.40;;;;;;;;;;1690558;83;21126;-65
2022/11/27 16:51:20;;;;;;;8.00;4.15;;;;;;;;;;1696458;83;20993;-66
2022/11/27 16:53:47;;;;;;;5.90;3.35;;;;;;;;;;1716584;83;21052;-65
2022/11/27 16:56:14;;;;;;;5.00;3.25;;;;;;;;;;1711108;83;21052;-66
2022/11/27 16:58:42;;;;;;;6.03;3.70;;;;;;;;;;1714899;83;20957;-66
2022/11/27 17:01:11;;;;;;;6.60;3.92;;;;;;;;;;1700595;83;21064;-66
2022/11/27 17:03:37;;;;;;;5.25;3.40;;;;;;;;;;1710339;82;21030;-67
2022/11/27 17:06:07;;;;;;;7.72;3.85;;;;;;;;;;1718062;83;21012;-63
2022/11/27 17:08:34;;;;;;;7.15;4.28;;;;;;;;;;1708629;83;21047;-64
2022/11/27 17:11:10;;;;;;;5.47;3.50;;;;;;;;;;1705255;83;21068;-64
2022/11/27 17:13:37;;;;;;;6.33;3.83;;;;;;;;;;1712946;83;21001;-65
2022/11/27 17:16:05;;;;;;;6.67;4.05;;;;;;;;;;1708157;83;21039;-65
2022/11/27 17:18:32;;;;;;;7.00;4.20;;;;;;;;;;1718931;83;21008;-65
2022/11/27 17:21:01;;;;;;;8.20;4.37;;;;;;;;;;1716550;83;21012;-65
2022/11/27 17:23:28;;;;;;;6.92;3.98;;;;;;;;;;1707781;83;21079;-64
2022/11/27 17:25:56;;;;;;;8.65;5.08;;;;;;;;;;1719139;83;21048;-64
2022/11/27 17:28:22;;;;;;;8.08;4.00;;;;;;;;;;1719884;83;21472;-64
2022/11/27 17:30:49;;;;;;;7.40;4.15;;;;;;;;;;1717624;83;21056;-64
2022/11/27 17:33:15;;;;;;;7.42;4.10;;;;;;;;;;1708095;83;21040;-65
2022/11/27 17:35:42;;;;;;;5.33;3.80;;;;;;;;;;1679639;83;22530;-64
2022/11/27 17:38:08;;;;;;;4.05;3.10;;;;;;;;;;1712639;82;21056;-64
2022/11/27 17:40:34;;;;;;;5.83;3.60;;;;;;;;;;1711413;83;21073;-64
2022/11/27 17:43:00;;;;;;;5.45;3.50;;;;;;;;;;1705991;83;21029;-64
2022/11/27 17:45:27;;;;;;;7.12;4.30;;;;;;;;;;1712227;83;21018;-64
2022/11/27 17:47:53;;;;;;;5.22;3.60;;;;;;;;;;1712886;83;21491;-64
2022/11/27 17:50:20;;;;;;;11.85;5.80;;;;;;;;;;1689622;83;21084;-64
2022/11/27 17:52:47;;;;;;;15.85;6.40;;;;;;;;;;1685738;83;21021;-64
2022/11/27 17:55:14;;;;;;;17.02;6.78;;;;;;;;;;1699127;83;21098;-64
2022/11/27 17:57:40;;;;;;;14.38;7.03;;;;;;;;;;1704799;83;21073;-64
2022/11/27 18:00:07;;;;;;;15.05;6.25;;;;;;;;;;1712288;83;21040;-65
2022/11/27 18:02:35;;;;;;;7.45;4.10;;;;;;;;;;1709289;83;21011;-64
2022/11/27 18:05:03;;;;;;;7.65;4.45;;;;;;;;;;1700395;83;21082;-65
2022/11/27 18:07:29;;;;;;;7.78;4.45;;;;;;;;;;1708523;83;21253;-64
2022/11/27 18:09:58;;;;;;;10.20;5.37;;;;;;;;;;1694763;84;21468;-65
2022/11/27 18:12:24;;;;;;;8.48;4.78;;;;;;;;;;1704122;84;21056;-65
2022/11/27 18:14:52;;;;;;;7.15;3.75;;;;;;;;;;1703546;84;21110;-65
2022/11/27 18:17:19;;;;;;;7.85;4.22;;;;;;;;;;1701931;84;21041;-65
2022/11/27 18:19:47;;;;;;;6.75;4.15;;;;;;;;;;1732990;81;21065;-64
2022/11/27 18:22:15;;;;;;;7.53;4.62;;;;;;;;;;1728925;82;21042;-65
2022/11/27 18:24:41;;;;;;;11.48;5.25;;;;;;;;;;1729952;82;21075;-65
2022/11/27 18:27:08;;;;;;;6.37;3.92;;;;;;;;;;1730770;83;21012;-65
2022/11/27 18:29:36;;;;;;;7.03;4.37;;;;;;;;;;1734995;81;21554;-65
2022/11/27 18:32:03;;;;;;;7.28;4.30;;;;;;;;;;1730460;82;21484;-65
2022/11/27 18:34:30;;;;;;;11.60;6.15;;;;;;;;;;1733471;82;21010;-65
2022/11/27 18:36:58;;;;;;;10.03;5.03;;;;;;;;;;1733031;83;21464;-65
2022/11/27 18:39:24;;;;;;;11.88;5.25;;;;;;;;;;1716289;83;21036;-65
2022/11/27 18:41:51;;;;;;;9.78;4.70;;;;;;;;;;1709356;83;21009;-66
2022/11/27 18:44:17;;;;;;;6.83;4.12;;;;;;;;;;1713400;83;20970;-66
2022/11/27 18:46:43;;;;;;;7.12;4.20;;;;;;;;;;1706912;83;21040;-66
2022/11/27 18:49:10;;;;;;;13.08;5.75;;;;;;;;;;1732730;81;21014;-65
2022/11/27 18:51:37;;;;;;;7.95;4.45;;;;;;;;;;1695529;84;21094;-65
2022/11/27 18:54:03;;;;;;;5.67;4.45;;;;;;;;;;1713274;82;21699;-66